Ahsahka, Idaho
Current Conditions -  °F | °C
As of 7:56 PM on Friday 31 Oct 2014 (Local Time) from KLWS Reporting Station
Broken Clouds Broken Clouds  
Wind Chill: 56°   Ceiling: 4900
Heat Index: 56°   Visibility: 10mi
Dew Point: 48°   Wind: 3mph
Humidity: 75%   Direction: 30°NNE
Pressure: 29.79"   Gusts: NA
Location:  46.51°N, 116.35°W
Report Text: KLWS 010256Z 03003KT 10SM BKN049 BKN100 13/09 A2979 RMK AO2 SLP089 T01330089 55001
Loading
Personal Weather Stations






























Interactive Weather Map
Tropical Storm Tracking
New forecast layout! Learn more

10-Day Weather Forecast

Advertisements
Track Severe Weather on mobile